Time;durP1;ratioP1;P1;durP2;ratioP2;P2;SDS_P1;SDS_P2;PMS_P1;PMS_P2;Temp;Humidity;BMP_temperature;BMP_pressure;BME280_temperature;BME280_humidity;BME280_pressure;Samples;Min_cycle;Max_cycle;Signal;HPM_P1;HPM_P2
2021/12/07 00:00:56;;;;;;;17.40;6.00;;;3.90;99.90;;;;;;5091297;28;20024;-43
2021/12/07 00:03:22;;;;;;;11.73;6.18;;;3.80;99.90;;;;;;5092584;28;20367;-43
2021/12/07 00:05:49;;;;;;;14.60;6.68;;;3.80;99.90;;;;;;5095305;28;20040;-43
2021/12/07 00:08:15;;;;;;;14.82;7.47;;;3.80;99.90;;;;;;5095188;28;20016;-43
2021/12/07 00:10:41;;;;;;;13.80;6.78;;;3.80;99.90;;;;;;5094444;28;20037;-43
2021/12/07 00:13:09;;;;;;;12.40;5.88;;;3.70;99.90;;;;;;5094912;28;20498;-43
2021/12/07 00:15:36;;;;;;;10.57;5.40;;;3.70;99.90;;;;;;5094754;28;20159;-44
2021/12/07 00:18:02;;;;;;;14.43;6.60;;;3.70;99.90;;;;;;5094305;28;20031;-42
2021/12/07 00:20:28;;;;;;;12.82;6.00;;;3.70;99.90;;;;;;5094925;28;20059;-43
2021/12/07 00:22:59;;;;;;;11.55;5.47;;;3.60;99.90;;;;;;5094820;28;20059;-45
2021/12/07 00:25:24;;;;;;;21.48;6.25;;;3.60;99.90;;;;;;5094336;28;20023;-43
2021/12/07 00:27:51;;;;;;;12.95;5.22;;;3.50;99.90;;;;;;5094648;28;20055;-44
2021/12/07 00:30:17;;;;;;;10.82;5.10;;;3.50;99.90;;;;;;5083114;28;20415;-42
2021/12/07 00:32:56;;;;;;;15.77;6.40;;;3.50;99.90;;;;;;5073880;28;20049;-44
2021/12/07 00:35:33;;;;;;;16.52;6.13;;;3.50;99.90;;;;;;5074424;28;20035;-42
2021/12/07 00:38:06;;;;;;;12.07;5.95;;;3.40;99.90;;;;;;5074232;28;20459;-42
2021/12/07 00:40:32;;;;;;;19.88;7.05;;;3.40;99.90;;;;;;5073634;28;20028;-42
2021/12/07 00:42:58;;;;;;;17.00;6.25;;;3.40;99.90;;;;;;5073935;28;20016;-43
2021/12/07 00:45:25;;;;;;;11.57;6.43;;;3.40;99.90;;;;;;5073830;28;20439;-43
2021/12/07 00:47:52;;;;;;;11.90;6.22;;;3.40;99.90;;;;;;5073972;28;20024;-44
2021/12/07 00:50:20;;;;;;;12.93;6.57;;;3.40;99.90;;;;;;5074052;28;20486;-45
2021/12/07 00:52:46;;;;;;;11.15;5.68;;;3.40;99.90;;;;;;5073309;28;20058;-43
2021/12/07 00:55:16;;;;;;;18.75;6.40;;;3.30;99.90;;;;;;5073658;28;20137;-44
2021/12/07 00:57:42;;;;;;;12.70;6.15;;;3.40;99.90;;;;;;5073886;28;20036;-45
2021/12/07 01:00:16;;;;;;;9.25;5.10;;;3.30;99.90;;;;;;5074228;28;20028;-43
2021/12/07 01:02:42;;;;;;;17.33;6.78;;;3.40;99.90;;;;;;5073740;28;20032;-42
2021/12/07 01:05:17;;;;;;;12.13;5.60;;;3.30;99.90;;;;;;5073702;28;20119;-43
2021/12/07 01:26:33;;;;;;;11.25;4.88;;;3.00;99.90;;;;;;5073338;28;20039;-42
2021/12/07 01:28:59;;;;;;;13.50;6.10;;;2.90;99.90;;;;;;5075901;28;20399;-42
2021/12/07 01:31:32;;;;;;;12.18;5.43;;;2.90;99.90;;;;;;5093322;28;20466;-45
2021/12/07 01:37:01;;;;;;;15.05;6.57;;;2.90;99.90;;;;;;5092907;28;20040;-42
2021/12/07 01:45:20;;;;;;;11.27;4.80;;;2.80;99.90;;;;;;5093245;28;20101;-43
2021/12/07 01:48:03;;;;;;;9.73;4.60;;;2.80;99.90;;;;;;5093278;28;20039;-44
2021/12/07 01:50:45;;;;;;;14.23;5.88;;;2.80;99.90;;;;;;5092779;28;20032;-43
2021/12/07 02:01:09;;;;;;;9.57;4.75;;;2.70;99.90;;;;;;5072980;28;20032;-43
2021/12/07 02:03:38;;;;;;;13.40;6.43;;;2.70;99.90;;;;;;5072294;28;20024;-42
2021/12/07 02:06:04;;;;;;;10.07;4.80;;;2.60;99.90;;;;;;5073953;28;20115;-44
2021/12/07 02:08:30;;;;;;;10.48;5.43;;;2.60;99.90;;;;;;5072853;28;20070;-42
2021/12/07 02:10:59;;;;;;;15.60;6.43;;;2.60;99.90;;;;;;5072322;28;20021;-42
2021/12/07 02:15:57;;;;;;;13.07;5.47;;;2.50;99.90;;;;;;5072889;28;20104;-42
2021/12/07 02:18:23;;;;;;;16.00;5.82;;;2.60;99.90;;;;;;5072183;28;20587;-43
2021/12/07 02:20:49;;;;;;;11.40;5.63;;;2.50;99.90;;;;;;5072629;28;20020;-43
2021/12/07 02:23:15;;;;;;;12.50;5.68;;;2.50;99.90;;;;;;5072703;28;20020;-43
2021/12/07 02:25:41;;;;;;;11.80;6.15;;;2.50;99.90;;;;;;5072050;28;20032;-43
2021/12/07 02:28:12;;;;;;;10.57;5.57;;;2.50;99.90;;;;;;5072749;28;20573;-43
2021/12/07 02:30:38;;;;;;;10.02;4.95;;;2.50;99.90;;;;;;5087726;28;20490;-43
2021/12/07 02:33:04;;;;;;;8.57;4.63;;;2.40;99.90;;;;;;5092346;28;20016;-43
2021/12/07 02:35:30;;;;;;;14.43;5.47;;;2.40;99.90;;;;;;5092892;28;20081;-43
2021/12/07 02:37:58;;;;;;;10.60;5.25;;;2.50;99.90;;;;;;5092421;28;20522;-43
2021/12/07 02:40:24;;;;;;;10.73;5.38;;;2.50;99.90;;;;;;5092770;28;20031;-42
2021/12/07 02:42:50;;;;;;;8.43;5.25;;;2.50;99.90;;;;;;5092811;28;20046;-43
2021/12/07 02:45:18;;;;;;;12.38;6.10;;;2.50;99.90;;;;;;5092118;28;20060;-43
2021/12/07 02:47:45;;;;;;;14.25;5.47;;;2.50;99.90;;;;;;5092661;28;20099;-43
2021/12/07 02:50:12;;;;;;;10.15;5.82;;;2.40;99.90;;;;;;5092793;28;20085;-43
2021/12/07 02:52:38;;;;;;;9.45;4.95;;;2.40;99.90;;;;;;5092090;28;20103;-44
2021/12/07 02:55:06;;;;;;;10.30;5.43;;;2.40;99.90;;;;;;5094399;28;20024;-42
2021/12/07 02:57:33;;;;;;;9.80;4.90;;;2.40;99.90;;;;;;5096390;28;20471;-42
2021/12/07 03:00:06;;;;;;;8.38;5.00;;;2.40;99.90;;;;;;5079229;28;20442;-42
2021/12/07 03:02:38;;;;;;;9.88;5.82;;;2.40;99.90;;;;;;5076183;28;20090;-43
2021/12/07 03:05:15;;;;;;;13.93;6.70;;;2.40;99.90;;;;;;5076093;28;20048;-42
2021/12/07 03:26:32;;;;;;;14.00;5.43;;;2.30;99.90;;;;;;5096270;28;20081;-43
2021/12/07 03:28:59;;;;;;;14.88;6.22;;;2.30;99.90;;;;;;5095412;28;20024;-42
2021/12/07 03:31:26;;;;;;;10.80;5.45;;;2.30;99.90;;;;;;5095802;28;20024;-45
2021/12/07 03:33:56;;;;;;;11.93;6.20;;;2.40;99.90;;;;;;5095774;28;20107;-43
2021/12/07 03:36:22;;;;;;;8.98;5.80;;;2.40;99.90;;;;;;5095311;28;20051;-41
2021/12/07 03:38:48;;;;;;;10.77;6.30;;;2.40;99.90;;;;;;5085539;28;20056;-43
2021/12/07 03:41:14;;;;;;;15.90;6.63;;;2.40;99.90;;;;;;5075039;28;20017;-42
2021/12/07 03:43:40;;;;;;;14.05;6.93;;;2.30;99.90;;;;;;5075182;28;20474;-44
2021/12/07 03:46:06;;;;;;;13.95;7.57;;;2.40;99.90;;;;;;5075174;28;20376;-42
2021/12/07 03:48:33;;;;;;;14.65;6.93;;;2.30;99.90;;;;;;5074742;28;20020;-42
2021/12/07 03:50:59;;;;;;;17.60;6.13;;;2.30;99.90;;;;;;5075109;28;20031;-43
2021/12/07 03:53:27;;;;;;;15.95;6.15;;;2.30;99.90;;;;;;5075247;28;20021;-44
2021/12/07 03:55:53;;;;;;;;;;;2.30;99.90;;;;;;5074666;28;20057;-42
2021/12/07 03:58:19;;;;;;;12.73;5.95;;;2.20;99.90;;;;;;5075053;28;19904;-42
2021/12/07 04:00:46;;;;;;;15.50;6.22;;;2.30;99.90;;;;;;5074825;28;20407;-43
2021/12/07 04:03:15;;;;;;;12.23;6.63;;;2.30;99.90;;;;;;5074444;28;20024;-44
2021/12/07 04:05:48;;;;;;;11.77;6.82;;;2.30;99.90;;;;;;5074280;28;20017;-44
2021/12/07 04:08:18;;;;;;;12.57;6.15;;;2.30;99.90;;;;;;5079552;28;20371;-43
2021/12/07 04:10:44;;;;;;;11.13;6.47;;;2.20;99.90;;;;;;5094505;28;20035;-44
2021/12/07 04:13:10;;;;;;;13.25;6.28;;;2.30;99.90;;;;;;5095088;28;20020;-42
2021/12/07 04:15:36;;;;;;;13.45;5.78;;;2.30;99.90;;;;;;5094722;28;20486;-43
2021/12/07 04:18:02;;;;;;;15.80;7.15;;;2.30;99.90;;;;;;5093752;28;20030;-42
2021/12/07 04:20:28;;;;;;;14.85;7.63;;;2.30;99.90;;;;;;5094204;28;20020;-42
2021/12/07 04:22:54;;;;;;;16.05;7.30;;;2.30;99.90;;;;;;5094033;28;20021;-43
2021/12/07 04:25:23;;;;;;;16.73;6.70;;;2.30;99.90;;;;;;5093399;28;20115;-44
2021/12/07 04:27:49;;;;;;;18.60;7.75;;;2.30;99.90;;;;;;5093823;28;20081;-44
2021/12/07 04:30:19;;;;;;;16.33;7.10;;;2.20;99.90;;;;;;5094047;28;20054;-42
2021/12/07 04:32:45;;;;;;;12.85;6.32;;;2.20;99.90;;;;;;5093296;28;20039;-45
2021/12/07 04:35:12;;;;;;;15.43;6.88;;;2.20;99.90;;;;;;5093965;28;20020;-43
2021/12/07 04:37:38;;;;;;;14.57;6.30;;;2.20;99.90;;;;;;5093158;28;20060;-42
2021/12/07 04:40:06;;;;;;;10.18;5.68;;;2.20;99.90;;;;;;5076484;28;20376;-42
2021/12/07 04:42:32;;;;;;;13.07;6.72;;;2.20;99.90;;;;;;5073551;28;20052;-44
2021/12/07 04:45:01;;;;;;;13.05;7.30;;;2.20;99.90;;;;;;5073810;28;20494;-43
2021/12/07 04:48:36;;;;;;;11.85;6.50;;;2.20;99.90;;;;;;5073405;28;20040;-45
2021/12/07 04:50:37;;;;;;;16.02;7.22;;;2.20;99.90;;;;;;5066428;28;20035;-42
2021/12/07 04:58:32;;;;;;;11.32;6.43;;;2.10;99.90;;;;;;5074130;28;20105;-44
2021/12/07 05:00:58;;;;;;;12.10;6.15;;;2.10;99.90;;;;;;5073293;28;20491;-43
2021/12/07 05:03:26;;;;;;;12.07;6.00;;;2.10;99.90;;;;;;5073783;28;20016;-43
2021/12/07 05:05:53;;;;;;;9.53;4.93;;;2.10;99.90;;;;;;5073259;28;20029;-42
2021/12/07 05:08:41;;;;;;;17.90;6.38;;;2.00;99.90;;;;;;5078732;28;20302;-44
2021/12/07 05:13:38;;;;;;;12.00;5.22;;;2.00;99.90;;;;;;5093289;28;20028;-43
2021/12/07 05:24:06;;;;;;;12.25;6.45;;;1.90;99.90;;;;;;5093836;28;20058;-42
2021/12/07 05:37:57;;;;;;;12.52;5.82;;;1.90;99.90;;;;;;5093473;28;20040;-42
2021/12/07 05:40:30;;;;;;;10.68;5.40;;;1.90;99.90;;;;;;5073115;28;20035;-45
2021/12/07 05:42:57;;;;;;;11.75;5.90;;;1.90;99.90;;;;;;5072652;28;20115;-43
2021/12/07 05:45:30;;;;;;;13.45;5.97;;;1.80;99.90;;;;;;5073964;28;20484;-43
2021/12/07 05:47:55;;;;;;;11.80;6.20;;;1.80;99.90;;;;;;5072570;28;20036;-42
2021/12/07 05:50:25;;;;;;;13.23;5.53;;;1.80;99.90;;;;;;5073111;28;20032;-43
2021/12/07 05:52:51;;;;;;;11.55;4.97;;;1.80;99.90;;;;;;5072876;28;20020;-42
2021/12/07 05:55:17;;;;;;;13.50;5.03;;;1.80;99.90;;;;;;5072333;28;20178;-42
2021/12/07 05:57:42;;;;;;;14.38;6.47;;;1.80;99.90;;;;;;5072954;28;20154;-43
2021/12/07 06:00:13;;;;;;;13.63;5.55;;;1.70;99.90;;;;;;5073002;28;20020;-42
2021/12/07 06:02:39;;;;;;;10.57;5.47;;;1.70;99.90;;;;;;5072430;28;20463;-42
2021/12/07 06:05:05;;;;;;;10.90;4.65;;;1.60;99.90;;;;;;5072832;28;20032;-43
2021/12/07 06:07:31;;;;;;;12.77;5.35;;;1.60;99.90;;;;;;5072720;28;20107;-42
2021/12/07 06:09:56;;;;;;;11.40;5.18;;;1.50;99.90;;;;;;5087958;28;20103;-42
2021/12/07 06:12:22;;;;;;;11.85;5.07;;;1.60;99.90;;;;;;5093044;28;20020;-44
2021/12/07 06:14:47;;;;;;;14.63;4.88;;;1.60;99.90;;;;;;5092941;28;20063;-43
2021/12/07 06:17:13;;;;;;;15.25;6.47;;;1.60;99.90;;;;;;5092533;28;20012;-43
2021/12/07 06:19:39;;;;;;;11.40;4.03;;;1.70;99.90;;;;;;5092941;28;20035;-44
2021/12/07 06:22:05;;;;;;;13.70;6.03;;;1.70;99.90;;;;;;5092866;28;20065;-43
2021/12/07 06:24:32;;;;;;;14.13;5.93;;;1.70;99.90;;;;;;5092342;28;20425;-43
2021/12/07 06:26:58;;;;;;;10.07;5.47;;;1.70;99.90;;;;;;5092895;28;20024;-42
2021/12/07 06:29:23;;;;;;;15.23;5.25;;;1.80;99.90;;;;;;5095604;28;20081;-42
2021/12/07 06:31:49;;;;;;;9.95;4.78;;;1.80;99.90;;;;;;5096397;28;20024;-42
2021/12/07 06:34:15;;;;;;;9.73;5.03;;;1.90;99.90;;;;;;5096952;28;20016;-44
2021/12/07 06:36:40;;;;;;;13.35;4.45;;;1.90;99.90;;;;;;5096792;28;20103;-43
2021/12/07 06:39:08;;;;;;;10.55;4.75;;;1.90;99.90;;;;;;5094599;28;20498;-44
2021/12/07 06:41:34;;;;;;;11.35;4.60;;;2.00;99.90;;;;;;5096740;28;20077;-43
2021/12/07 06:44:00;;;;;;;11.52;4.97;;;2.10;99.90;;;;;;5096534;28;20491;-42
2021/12/07 06:46:25;;;;;;;13.98;5.13;;;2.10;99.90;;;;;;5095934;28;20024;-42
2021/12/07 06:48:51;;;;;;;10.23;4.40;;;2.20;99.90;;;;;;5096636;28;20479;-43
2021/12/07 06:51:17;;;;;;;9.85;5.13;;;2.10;99.90;;;;;;5095937;28;20027;-42
2021/12/07 06:53:43;;;;;;;9.43;5.10;;;2.20;99.90;;;;;;5096130;28;20047;-42
2021/12/07 06:56:09;;;;;;;10.55;4.55;;;2.20;99.90;;;;;;5096127;28;20409;-42
2021/12/07 06:58:35;;;;;;;13.07;5.85;;;2.20;99.90;;;;;;5095901;28;20471;-42
2021/12/07 07:01:03;;;;;;;30.95;14.35;;;2.30;99.90;;;;;;5096343;28;20028;-43
2021/12/07 07:03:28;;;;;;;30.42;16.15;;;2.20;99.90;;;;;;5096380;28;20030;-43
2021/12/07 07:05:54;;;;;;;24.02;12.65;;;2.20;99.90;;;;;;5095744;28;20032;-44
2021/12/07 07:08:20;;;;;;;26.58;12.55;;;2.10;99.90;;;;;;5091337;28;20028;-44
2021/12/07 07:10:46;;;;;;;17.90;9.85;;;2.10;99.90;;;;;;5086444;28;20024;-43
2021/12/07 07:13:12;;;;;;;13.75;5.65;;;2.10;99.90;;;;;;5094806;28;20112;-43
2021/12/07 07:15:38;;;;;;;12.10;4.68;;;2.10;99.90;;;;;;5077452;28;20111;-44
2021/12/07 07:18:03;;;;;;;9.98;3.92;;;2.00;99.90;;;;;;5075302;28;20104;-44
2021/12/07 07:20:29;;;;;;;12.52;5.13;;;2.00;99.90;;;;;;5074350;28;20033;-42
2021/12/07 07:22:55;;;;;;;10.23;5.50;;;2.00;99.90;;;;;;5057071;28;20460;-44
2021/12/07 07:25:20;;;;;;;11.05;4.25;;;1.90;99.90;;;;;;5074863;28;20115;-44
2021/12/07 07:27:47;;;;;;;11.57;5.57;;;1.90;99.90;;;;;;5092046;28;20020;-42
2021/12/07 07:30:15;;;;;;;11.80;4.93;;;1.90;99.90;;;;;;5094930;28;20020;-43
2021/12/07 07:32:42;;;;;;;10.55;5.22;;;1.90;99.90;;;;;;5095289;28;20028;-46
2021/12/07 07:35:09;;;;;;;9.38;3.95;;;1.90;99.90;;;;;;5094526;28;20028;-42
2021/12/07 07:37:35;;;;;;;8.93;5.10;;;1.90;99.90;;;;;;5095198;28;20031;-42
2021/12/07 07:40:03;;;;;;;17.75;6.15;;;2.00;99.90;;;;;;5094130;28;20274;-43
2021/12/07 07:42:28;;;;;;;15.52;5.20;;;2.00;99.90;;;;;;5094310;28;20020;-43
2021/12/07 07:44:54;;;;;;;15.63;5.20;;;2.00;99.90;;;;;;5094887;28;20046;-43
2021/12/07 07:47:19;;;;;;;9.70;5.00;;;2.10;99.90;;;;;;5094573;28;20020;-44
2021/12/07 07:49:45;;;;;;;13.07;5.25;;;2.10;99.90;;;;;;5094414;28;20043;-44
2021/12/07 07:52:10;;;;;;;9.82;4.60;;;2.20;99.90;;;;;;5094617;28;20027;-43
2021/12/07 07:54:36;;;;;;;11.50;4.53;;;2.20;99.90;;;;;;5094222;28;20052;-43
2021/12/07 07:57:02;;;;;;;12.20;5.93;;;2.30;99.90;;;;;;5094465;28;20094;-44
2021/12/07 07:59:27;;;;;;;13.07;5.43;;;2.30;99.90;;;;;;5094597;28;20020;-43
2021/12/07 08:01:53;;;;;;;9.88;5.47;;;2.40;99.90;;;;;;5093201;28;20029;-44
2021/12/07 08:04:19;;;;;;;9.80;4.93;;;2.40;99.90;;;;;;5074687;28;20028;-45
2021/12/07 08:06:44;;;;;;;14.68;5.95;;;2.50;99.90;;;;;;5074261;28;20020;-43
2021/12/07 08:09:10;;;;;;;12.60;4.10;;;2.50;99.90;;;;;;5073701;28;20028;-43
2021/12/07 08:11:37;;;;;;;11.75;4.95;;;2.60;99.90;;;;;;5073933;28;20071;-43
2021/12/07 08:14:03;;;;;;;14.68;5.32;;;2.60;99.90;;;;;;5074055;28;20051;-44
2021/12/07 08:16:28;;;;;;;13.02;6.30;;;2.70;99.90;;;;;;5085384;28;20032;-43
2021/12/07 08:18:54;;;;;;;11.05;5.70;;;2.60;99.90;;;;;;5074045;28;20016;-42
2021/12/07 08:21:20;;;;;;;11.55;5.32;;;2.60;99.90;;;;;;5073819;28;20065;-43
2021/12/07 08:23:46;;;;;;;15.43;4.85;;;2.60;99.90;;;;;;5073354;28;20028;-43
2021/12/07 08:26:16;;;;;;;12.80;4.40;;;2.60;99.90;;;;;;5073702;28;20021;-42
2021/12/07 08:28:42;;;;;;;8.55;4.30;;;2.50;99.90;;;;;;5073997;28;20086;-45
2021/12/07 08:31:08;;;;;;;8.57;4.13;;;2.50;99.90;;;;;;5073260;28;20463;-43
2021/12/07 08:33:34;;;;;;;8.80;4.32;;;2.40;99.90;;;;;;5073703;28;20623;-44
2021/12/07 08:36:01;;;;;;;16.63;3.88;;;2.40;99.90;;;;;;5090568;28;20032;-43
2021/12/07 08:38:28;;;;;;;11.00;4.25;;;2.40;99.90;;;;;;5093022;28;20367;-42
2021/12/07 08:40:54;;;;;;;14.52;4.55;;;2.40;99.90;;;;;;5093881;28;20028;-43
2021/12/07 08:43:28;;;;;;;13.48;4.72;;;2.40;99.90;;;;;;5093372;28;20027;-43
2021/12/07 08:45:57;;;;;;;9.45;4.45;;;2.40;99.90;;;;;;5093249;28;20111;-43
2021/12/07 08:48:24;;;;;;;12.13;5.22;;;2.40;99.90;;;;;;5086123;28;20029;-47
2021/12/07 08:50:49;;;;;;;16.55;5.82;;;2.40;99.90;;;;;;5075044;28;20034;-43
2021/12/07 08:53:17;;;;;;;9.10;3.60;;;2.40;99.90;;;;;;5093393;28;20016;-44
2021/12/07 09:01:16;;;;;;;10.55;4.18;;;2.50;99.90;;;;;;5091840;28;20485;-43
2021/12/07 09:03:42;;;;;;;10.63;4.45;;;2.60;99.90;;;;;;5092585;28;20024;-42
2021/12/07 09:06:08;;;;;;;8.80;4.40;;;2.60;99.90;;;;;;5092918;28;20024;-42
2021/12/07 09:08:35;;;;;;;9.55;3.70;;;2.60;99.90;;;;;;5093067;28;20060;-43
2021/12/07 09:11:02;;;;;;;16.17;4.93;;;2.60;99.90;;;;;;5093044;28;20031;-42
2021/12/07 09:13:28;;;;;;;9.50;3.95;;;2.60;99.90;;;;;;5092540;28;20049;-42
2021/12/07 09:15:55;;;;;;;10.35;4.93;;;2.70;99.90;;;;;;5088582;28;20023;-42
2021/12/07 09:18:21;;;;;;;8.48;4.05;;;2.70;99.90;;;;;;5074472;28;20025;-43
2021/12/07 09:20:47;;;;;;;16.73;4.53;;;2.80;99.90;;;;;;5072376;28;20468;-43
2021/12/07 09:23:12;;;;;;;11.90;5.13;;;2.80;99.90;;;;;;5072621;28;20117;-43
2021/12/07 09:25:38;;;;;;;10.32;4.25;;;2.90;99.90;;;;;;5072871;28;20044;-42
2021/12/07 09:28:05;;;;;;;10.10;4.22;;;2.90;99.90;;;;;;5072154;28;20021;-44
2021/12/07 09:30:31;;;;;;;8.68;4.78;;;2.90;99.90;;;;;;5072366;28;20036;-42
2021/12/07 09:32:57;;;;;;;14.65;5.00;;;2.90;99.90;;;;;;5081104;28;20020;-43
2021/12/07 09:35:23;;;;;;;12.55;4.88;;;2.90;99.90;;;;;;5092635;28;20026;-42
2021/12/07 09:37:52;;;;;;;13.88;5.15;;;3.00;99.90;;;;;;5092809;28;20024;-42
2021/12/07 09:40:19;;;;;;;12.00;5.75;;;3.00;99.90;;;;;;5092019;28;20020;-43
2021/12/07 09:42:46;;;;;;;23.25;4.60;;;3.00;99.90;;;;;;5092614;28;20411;-44
2021/12/07 09:45:15;;;;;;;10.18;3.50;;;3.10;99.90;;;;;;5092322;28;20471;-43
2021/12/07 09:47:41;;;;;;;;;;;3.10;99.90;;;;;;5092729;28;20024;-43
2021/12/07 09:50:09;;;;;;;12.13;4.50;;;3.10;99.90;;;;;;5092636;28;19914;-44
2021/12/07 09:52:34;;;;;;;9.32;4.82;;;3.20;99.90;;;;;;5087295;28;20161;-44
2021/12/07 09:55:00;;;;;;;11.90;3.95;;;3.20;99.90;;;;;;5071669;28;20451;-44
2021/12/07 09:57:26;;;;;;;10.82;3.63;;;3.20;99.90;;;;;;5072040;28;20024;-43
2021/12/07 09:59:51;;;;;;;10.18;4.38;;;3.20;99.90;;;;;;5072332;28;20027;-43
2021/12/07 10:02:18;;;;;;;7.30;3.42;;;3.20;99.90;;;;;;5071630;28;20056;-43
2021/12/07 10:04:44;;;;;;;5.80;3.80;;;3.20;99.90;;;;;;5071704;28;20067;-42
2021/12/07 10:07:10;;;;;;;6.53;3.42;;;3.10;99.90;;;;;;5071888;28;20463;-45
2021/12/07 10:09:37;;;;;;;10.18;4.32;;;3.20;99.90;;;;;;5071544;28;20024;-43
2021/12/07 10:12:05;;;;;;;13.93;4.13;;;3.30;99.90;;;;;;5077906;28;20020;-43
2021/12/07 10:14:42;;;;;;;14.07;4.63;;;3.50;99.90;;;;;;5081760;28;20048;-43
2021/12/07 10:17:09;;;;;;;11.10;3.72;;;3.70;99.90;;;;;;5088587;28;20035;-44
2021/12/07 10:19:41;;;;;;;5.53;3.10;;;3.90;99.90;;;;;;5090021;28;20016;-42
2021/12/07 10:22:15;;;;;;;10.50;4.22;;;4.00;99.90;;;;;;5090729;28;20032;-42
2021/12/07 10:24:49;;;;;;;10.77;4.13;;;4.00;99.90;;;;;;5090768;28;20047;-43
2021/12/07 10:27:37;;;;;;;13.98;3.22;;;4.00;99.90;;;;;;5090691;28;20028;-44
2021/12/07 10:30:09;;;;;;;14.23;4.35;;;4.00;99.90;;;;;;5089796;28;20051;-42
2021/12/07 10:32:39;;;;;;;14.05;3.67;;;4.00;99.90;;;;;;5089504;28;20096;-43
2021/12/07 10:35:25;;;;;;;8.70;3.85;;;4.10;99.90;;;;;;5090608;28;20110;-44
2021/12/07 10:38:10;;;;;;;8.38;3.65;;;4.20;99.90;;;;;;5086272;28;20067;-43
2021/12/07 10:40:53;;;;;;;15.55;3.35;;;4.40;99.90;;;;;;5090553;28;20020;-43
2021/12/07 10:43:18;;;;;;;7.15;4.07;;;4.50;99.90;;;;;;5089809;28;20089;-43
2021/12/07 10:45:44;;;;;;;9.65;3.95;;;4.60;99.90;;;;;;5090555;28;20016;-42
2021/12/07 10:48:22;;;;;;;5.90;3.35;;;4.70;99.90;;;;;;5090566;28;20506;-47
2021/12/07 10:50:48;;;;;;;;;;;4.90;99.90;;;;;;5090785;28;20400;-44
2021/12/07 10:53:14;;;;;;;12.32;3.67;;;4.90;99.90;;;;;;5090518;28;19951;-43
2021/12/07 10:55:40;;;;;;;8.40;3.25;;;5.10;99.90;;;;;;5090059;28;20440;-43
2021/12/07 10:58:13;;;;;;;10.15;3.28;;;5.10;99.90;;;;;;5089996;28;20016;-42
2021/12/07 11:00:45;;;;;;;8.85;4.18;;;5.20;99.90;;;;;;5090641;28;20035;-43
2021/12/07 11:03:14;;;;;;;10.18;4.35;;;5.30;99.90;;;;;;5090576;28;20058;-43
2021/12/07 11:05:44;;;;;;;9.85;3.28;;;5.40;99.90;;;;;;5089403;28;20119;-42
2021/12/07 11:08:11;;;;;;;14.15;3.85;;;5.50;99.90;;;;;;5089885;28;20020;-48
2021/12/07 11:10:48;;;;;;;7.63;3.28;;;5.60;99.90;;;;;;5082264;28;20093;-42
2021/12/07 11:13:35;;;;;;;10.90;3.97;;;5.70;99.90;;;;;;5089858;28;20079;-43
2021/12/07 11:16:10;;;;;;;8.82;2.75;;;5.70;99.90;;;;;;5091904;28;20282;-43
2021/12/07 11:18:39;;;;;;;11.93;3.78;;;5.80;99.90;;;;;;5093216;28;20034;-44
2021/12/07 11:21:11;;;;;;;8.45;2.90;;;5.90;99.90;;;;;;5094081;28;20051;-43
2021/12/07 11:23:44;;;;;;;5.53;3.35;;;5.90;99.90;;;;;;5093990;28;20336;-43
2021/12/07 11:31:36;;;;;;;9.10;3.58;;;6.10;99.90;;;;;;5093916;28;20046;-43
2021/12/07 11:34:15;;;;;;;6.50;3.17;;;6.20;99.90;;;;;;5093073;28;20022;-44
2021/12/07 11:36:53;;;;;;;9.75;3.25;;;6.20;99.90;;;;;;5091388;28;20028;-43
2021/12/07 11:39:42;;;;;;;12.03;3.23;;;6.20;99.90;;;;;;5085189;28;20562;-42
2021/12/07 11:42:15;;;;;;;8.43;3.28;;;6.30;99.90;;;;;;5090208;28;20164;-42
2021/12/07 11:45:00;;;;;;;8.35;3.47;;;6.30;99.90;;;;;;5092906;28;20028;-41
2021/12/07 11:47:30;;;;;;;8.77;2.58;;;6.40;99.90;;;;;;5088700;28;20039;-42
2021/12/07 11:49:57;;;;;;;8.80;2.72;;;6.40;99.90;;;;;;5092466;28;20471;-43
2021/12/07 11:52:22;;;;;;;10.80;3.28;;;6.50;99.90;;;;;;5088707;28;20025;-42
2021/12/07 11:54:49;;;;;;;6.22;3.10;;;6.50;99.90;;;;;;5090632;28;20494;-44
2021/12/07 11:57:17;;;;;;;12.23;3.30;;;6.50;99.90;;;;;;5091548;28;20094;-42
2021/12/07 11:59:46;;;;;;;10.00;3.88;;;6.60;99.90;;;;;;5093018;28;20077;-43
2021/12/07 12:02:12;;;;;;;6.82;2.90;;;6.60;99.90;;;;;;5092358;28;20431;-44
2021/12/07 12:04:39;;;;;;;8.05;3.28;;;6.70;99.90;;;;;;5092752;28;20065;-43
2021/12/07 12:07:08;;;;;;;15.27;3.22;;;6.80;99.90;;;;;;5084393;28;20111;-42
2021/12/07 12:09:35;;;;;;;12.30;3.92;;;6.80;99.90;;;;;;5099376;28;20035;-43
2021/12/07 12:12:24;;;;;;;9.80;3.80;;;6.80;99.90;;;;;;5092904;28;20028;-43
2021/12/07 12:15:15;;;;;;;12.13;3.45;;;6.80;99.90;;;;;;5092429;28;20544;-43
2021/12/07 12:18:16;;;;;;;9.13;2.88;;;6.90;99.90;;;;;;5092993;28;20034;-44
2021/12/07 12:21:06;;;;;;;6.88;3.80;;;7.00;99.90;;;;;;5010742;28;20390;-43
2021/12/07 12:23:50;;;;;;;3.92;2.30;;;7.00;99.90;;;;;;5089153;28;20060;-43
2021/12/07 12:26:22;;;;;;;7.78;3.20;;;7.00;99.90;;;;;;5090893;28;20051;-43
2021/12/07 12:28:49;;;;;;;5.32;2.72;;;7.00;99.90;;;;;;5091932;28;20450;-42
2021/12/07 12:31:17;;;;;;;8.90;3.40;;;7.00;99.90;;;;;;5092493;28;20103;-42
2021/12/07 12:33:46;;;;;;;8.27;3.43;;;7.00;99.90;;;;;;5073897;28;20392;-43
2021/12/07 12:36:12;;;;;;;7.07;3.05;;;7.10;99.90;;;;;;5091703;28;20024;-42
2021/12/07 12:38:46;;;;;;;12.63;3.58;;;7.10;99.90;;;;;;5092531;28;20024;-43
2021/12/07 12:41:14;;;;;;;8.40;3.60;;;7.10;99.90;;;;;;5091968;28;20024;-41
2021/12/07 12:43:52;;;;;;;6.97;3.70;;;7.00;99.90;;;;;;5091990;28;20074;-43
2021/12/07 12:46:21;;;;;;;9.53;3.40;;;7.00;99.90;;;;;;5091901;28;20052;-43
2021/12/07 12:48:49;;;;;;;11.68;3.65;;;7.00;99.90;;;;;;5092397;28;20353;-43
2021/12/07 12:51:15;;;;;;;7.85;3.03;;;7.00;99.90;;;;;;5091749;28;20020;-42
2021/12/07 12:53:43;;;;;;;6.78;3.45;;;7.00;99.90;;;;;;5091973;28;20093;-42
2021/12/07 12:56:29;;;;;;;8.40;3.30;;;7.00;99.90;;;;;;5091585;28;20119;-43
2021/12/07 12:59:02;;;;;;;5.68;3.00;;;7.00;99.90;;;;;;5091897;28;20024;-43
2021/12/07 13:01:31;;;;;;;5.15;2.60;;;7.00;99.90;;;;;;5091687;28;20058;-44
2021/12/07 13:04:07;;;;;;;10.00;3.25;;;6.90;99.90;;;;;;5091716;28;20035;-45
2021/12/07 13:06:39;;;;;;;9.55;3.30;;;7.00;99.90;;;;;;5090807;28;20475;-42
2021/12/07 13:09:09;;;;;;;5.32;3.58;;;7.00;99.90;;;;;;5095550;28;20043;-46
2021/12/07 13:11:45;;;;;;;8.52;3.17;;;6.90;99.90;;;;;;5090119;28;20027;-43
2021/12/07 13:14:30;;;;;;;7.07;3.50;;;7.00;99.90;;;;;;5091780;28;20086;-43
2021/12/07 13:17:05;;;;;;;7.07;3.28;;;7.10;99.90;;;;;;5091565;28;20031;-43
2021/12/07 13:19:32;;;;;;;15.38;3.90;;;7.10;99.90;;;;;;5090769;28;20063;-44
2021/12/07 13:22:04;;;;;;;9.95;2.90;;;7.10;99.90;;;;;;5091906;28;20024;-43
2021/12/07 13:24:40;;;;;;;6.22;3.53;;;7.10;99.90;;;;;;5090965;28;20085;-43
2021/12/07 13:27:15;;;;;;;7.97;3.20;;;7.10;99.90;;;;;;5091055;28;20074;-44
2021/12/07 13:29:51;;;;;;;9.52;2.92;;;7.10;99.90;;;;;;5091942;28;20024;-42
2021/12/07 13:32:17;;;;;;;13.25;3.60;;;7.20;99.90;;;;;;5090674;28;20035;-43
2021/12/07 13:34:43;;;;;;;8.73;2.80;;;7.20;99.90;;;;;;5089666;28;20028;-43
2021/12/07 13:37:13;;;;;;;7.32;3.20;;;7.10;99.90;;;;;;5091465;28;20020;-42
2021/12/07 13:39:50;;;;;;;8.02;3.92;;;7.10;99.90;;;;;;5090229;28;20028;-44
2021/12/07 13:42:19;;;;;;;11.70;3.22;;;7.20;99.90;;;;;;5091169;28;20439;-44
2021/12/07 13:45:08;;;;;;;5.93;3.00;;;7.20;99.90;;;;;;5091220;28;20035;-44
2021/12/07 13:47:40;;;;;;;8.93;3.22;;;7.10;99.90;;;;;;5089965;28;20379;-43
2021/12/07 13:50:22;;;;;;;5.30;2.97;;;7.10;99.90;;;;;;5091407;28;20085;-43
2021/12/07 13:52:51;;;;;;;6.40;3.30;;;7.00;99.90;;;;;;5091749;28;20062;-44
2021/12/07 13:55:20;;;;;;;9.98;3.40;;;7.00;99.90;;;;;;5090308;28;20047;-43
2021/12/07 13:57:53;;;;;;;5.72;3.38;;;7.00;99.90;;;;;;5091081;28;20463;-43
2021/12/07 14:00:24;;;;;;;7.75;3.20;;;6.90;99.90;;;;;;5089649;28;20038;-44
2021/12/07 14:03:00;;;;;;;8.38;3.78;;;6.90;99.90;;;;;;5088991;28;20032;-42
2021/12/07 14:05:32;;;;;;;10.02;3.35;;;6.90;99.90;;;;;;5085722;28;20043;-44
2021/12/07 14:08:01;;;;;;;8.63;3.65;;;6.80;99.90;;;;;;5090680;28;20039;-43
2021/12/07 14:10:35;;;;;;;15.13;4.55;;;6.80;99.90;;;;;;5090538;28;20028;-44
2021/12/07 14:13:03;;;;;;;8.38;4.38;;;6.70;99.90;;;;;;5090831;28;20073;-43
2021/12/07 14:15:35;;;;;;;7.30;4.03;;;6.60;99.90;;;;;;5087309;28;20095;-43
2021/12/07 14:18:10;;;;;;;9.45;4.22;;;6.50;99.90;;;;;;5080970;28;20020;-44
2021/12/07 14:20:44;;;;;;;7.30;4.18;;;6.40;99.90;;;;;;5090469;28;20024;-45
2021/12/07 14:23:36;;;;;;;12.95;4.95;;;6.30;99.90;;;;;;5090420;28;20034;-44
2021/12/07 14:26:06;;;;;;;8.27;4.05;;;6.20;99.90;;;;;;5079949;28;20029;-43
2021/12/07 14:28:41;;;;;;;11.43;4.82;;;6.10;99.90;;;;;;5086256;28;20032;-44
2021/12/07 14:31:25;;;;;;;9.98;4.60;;;6.00;99.90;;;;;;5088972;28;20106;-43
2021/12/07 14:33:56;;;;;;;8.65;4.47;;;5.90;99.90;;;;;;5090630;28;20098;-44
2021/12/07 14:36:26;;;;;;;10.68;4.05;;;5.80;99.90;;;;;;5093265;28;20027;-42